createdAt,value
2019-02-28T00:00:46.164Z,13.93
2019-02-28T00:03:15.036Z,10.97
2019-02-28T00:05:43.576Z,13.10
2019-02-28T00:08:12.047Z,14.37
2019-02-28T00:10:40.546Z,11.67
2019-02-28T00:13:09.002Z,13.73
2019-02-28T00:15:37.473Z,14.37
2019-02-28T00:18:05.950Z,12.93
2019-02-28T00:20:36.462Z,11.70
2019-02-28T00:23:04.706Z,13.33
2019-02-28T00:25:37.753Z,12.57
2019-02-28T00:28:03.376Z,11.63
2019-02-28T00:30:31.837Z,12.73
2019-02-28T00:33:00.314Z,11.63
2019-02-28T00:35:28.785Z,14.17
2019-02-28T00:37:57.444Z,12.83
2019-02-28T00:40:26.010Z,12.73
2019-02-28T00:42:54.469Z,12.47
2019-02-28T00:45:22.955Z,12.57
2019-02-28T00:47:51.433Z,14.23
2019-02-28T00:50:19.909Z,10.97
2019-02-28T00:52:48.415Z,13.30
2019-02-28T00:55:16.951Z,12.70
2019-02-28T00:57:45.478Z,14.40
2019-02-28T01:00:19.091Z,9.23
2019-02-28T01:02:51.882Z,12.13
2019-02-28T01:05:17.908Z,10.53
2019-02-28T01:07:48.062Z,11.33
2019-02-28T01:10:16.829Z,11.93
2019-02-28T01:12:45.300Z,14.33
2019-02-28T01:15:18.177Z,10.87
2019-02-28T01:17:46.663Z,11.67
2019-02-28T01:20:16.567Z,15.67
2019-02-28T01:22:45.312Z,12.23
2019-02-28T01:25:18.151Z,15.13
2019-02-28T01:27:46.675Z,10.83
2019-02-28T01:30:16.305Z,10.10
2019-02-28T01:32:49.726Z,12.30
2019-02-28T01:35:16.004Z,13.10
2019-02-28T01:37:44.469Z,12.03
2019-02-28T01:40:14.484Z,12.30
2019-02-28T01:42:43.116Z,14.60
2019-02-28T01:45:12.828Z,9.40
2019-02-28T01:47:41.524Z,11.70
2019-02-28T01:50:11.549Z,10.60
2019-02-28T01:52:44.464Z,10.90
2019-02-28T01:55:11.163Z,10.63
2019-02-28T01:57:43.818Z,10.13
2019-02-28T02:00:18.036Z,11.13
2019-02-28T02:02:46.563Z,11.60
2019-02-28T02:05:16.880Z,10.50
2019-02-28T02:07:45.304Z,11.87
2019-02-28T02:10:21.273Z,10.23
2019-02-28T02:12:51.221Z,11.23
2019-02-28T02:15:20.125Z,14.43
2019-02-28T02:17:49.264Z,10.13
2019-02-28T02:20:17.882Z,12.97
2019-02-28T02:22:46.484Z,10.67
2019-02-28T02:25:15.025Z,9.10
2019-02-28T02:27:43.495Z,14.63
2019-02-28T02:30:17.577Z,9.77
2019-02-28T02:32:46.210Z,11.27
2019-02-28T02:35:15.059Z,10.87
2019-02-28T02:37:43.593Z,10.70
2019-02-28T02:40:14.801Z,13.43
2019-02-28T02:42:47.263Z,11.43
2019-02-28T02:45:14.695Z,12.53
2019-02-28T02:47:43.181Z,11.87
2019-02-28T02:50:15.436Z,10.00
2019-02-28T02:52:44.376Z,10.03
2019-02-28T02:55:13.818Z,11.83
2019-02-28T02:57:42.283Z,10.33
2019-02-28T03:00:15.179Z,10.13
2019-02-28T03:02:43.836Z,10.70
2019-02-28T03:05:12.402Z,9.77
2019-02-28T03:07:40.992Z,10.83
2019-02-28T03:10:18.248Z,10.33
2019-02-28T03:12:47.409Z,10.43
2019-02-28T03:15:25.272Z,13.70
2019-02-28T03:17:48.784Z,10.63
2019-02-28T03:20:17.856Z,11.70
2019-02-28T03:22:46.641Z,10.87
2019-02-28T03:25:17.040Z,11.27
2019-02-28T03:27:45.575Z,10.83
2019-02-28T03:30:27.649Z,9.93
2019-02-28T03:32:49.355Z,10.77
2019-02-28T03:35:17.989Z,12.93
2019-02-28T03:37:46.547Z,9.87
2019-02-28T03:40:16.222Z,12.60
2019-02-28T03:42:44.718Z,9.80
2019-02-28T03:45:15.184Z,15.60
2019-02-28T03:47:43.678Z,10.73
2019-02-28T03:50:12.695Z,11.70
2019-02-28T03:52:43.858Z,10.57
2019-02-28T03:55:12.981Z,13.10
2019-02-28T03:57:41.510Z,10.77
2019-02-28T04:00:21.210Z,11.23
2019-02-28T04:02:56.927Z,11.43
2019-02-28T04:05:26.486Z,11.50
2019-02-28T04:07:53.683Z,11.27
2019-02-28T04:10:22.145Z,11.03
2019-02-28T04:12:50.792Z,12.63
2019-02-28T04:15:20.305Z,12.87
2019-02-28T04:17:48.773Z,9.03
2019-02-28T04:20:17.387Z,10.30
2019-02-28T04:22:45.852Z,11.07
2019-02-28T04:25:14.338Z,10.33
2019-02-28T04:27:42.815Z,11.80
2019-02-28T04:30:12.924Z,12.17
2019-02-28T04:32:42.894Z,11.67
2019-02-28T04:35:11.669Z,11.10
2019-02-28T04:37:44.667Z,11.87
2019-02-28T04:40:11.955Z,12.33
2019-02-28T04:42:40.424Z,13.23
2019-02-28T04:45:11.852Z,11.40
2019-02-28T04:47:41.473Z,11.60
2019-02-28T04:50:11.610Z,11.67
2019-02-28T04:52:40.080Z,11.13
2019-02-28T04:55:10.579Z,13.17
2019-02-28T04:57:39.112Z,10.63
2019-02-28T05:00:10.799Z,11.90
2019-02-28T05:02:39.317Z,11.70
2019-02-28T05:05:12.177Z,13.37
2019-02-28T05:07:38.096Z,11.33
2019-02-28T05:10:08.610Z,14.03
2019-02-28T05:12:39.841Z,12.03
2019-02-28T05:15:10.042Z,10.93
2019-02-28T05:17:38.519Z,13.77
2019-02-28T05:20:10.953Z,13.20
2019-02-28T05:22:39.523Z,10.37
2019-02-28T05:25:09.746Z,10.77
2019-02-28T05:27:38.223Z,11.83
2019-02-28T05:30:09.785Z,12.23
2019-02-28T05:32:38.251Z,12.50
2019-02-28T05:35:06.911Z,12.97
2019-02-28T05:37:35.451Z,12.67
2019-02-28T05:40:06.974Z,12.97
2019-02-28T05:42:35.593Z,13.77
2019-02-28T05:45:05.421Z,12.97
2019-02-28T05:47:44.755Z,11.43
2019-02-28T05:50:04.796Z,14.33
2019-02-28T05:52:33.730Z,11.33
2019-02-28T05:55:03.158Z,15.77
2019-02-28T05:57:31.645Z,13.03
2019-02-28T06:00:01.912Z,15.17
2019-02-28T06:02:30.328Z,14.43
2019-02-28T06:04:58.803Z,12.03
2019-02-28T06:07:28.723Z,13.00
2019-02-28T06:09:57.477Z,13.40
2019-02-28T06:12:25.936Z,16.83
2019-02-28T06:14:54.428Z,13.47
2019-02-28T06:17:22.970Z,13.17
2019-02-28T06:19:51.451Z,14.53
2019-02-28T06:22:19.918Z,15.73
2019-02-28T06:24:48.406Z,15.47
2019-02-28T06:27:16.866Z,15.73
2019-02-28T06:29:45.334Z,20.40
2019-02-28T06:32:13.811Z,18.20
2019-02-28T06:34:43.040Z,15.90
2019-02-28T06:37:11.700Z,16.17
2019-02-28T06:39:40.232Z,17.47
2019-02-28T06:42:11.843Z,17.23
2019-02-28T06:44:38.934Z,16.43
2019-02-28T06:47:07.408Z,17.27
2019-02-28T06:49:40.954Z,16.73
2019-02-28T06:52:06.095Z,17.30
2019-02-28T06:54:34.589Z,17.33
2019-02-28T06:57:03.060Z,17.30
2019-02-28T06:59:31.552Z,20.30
2019-02-28T07:02:00.045Z,23.27
2019-02-28T07:04:28.616Z,16.83
2019-02-28T07:06:57.077Z,18.87
2019-02-28T07:09:25.596Z,21.17
2019-02-28T07:11:54.878Z,22.13
2019-02-28T07:14:24.263Z,22.67
2019-02-28T07:16:52.725Z,20.77
2019-02-28T07:19:21.376Z,20.83
2019-02-28T07:21:49.943Z,22.70
2019-02-28T07:24:18.429Z,25.17
2019-02-28T07:26:48.301Z,20.97
2019-02-28T07:29:16.877Z,27.43
2019-02-28T07:31:45.453Z,25.37
2019-02-28T07:34:19.369Z,27.50
2019-02-28T07:36:44.809Z,25.00
2019-02-28T07:39:14.368Z,25.90
2019-02-28T07:41:42.855Z,28.30
2019-02-28T07:44:11.316Z,30.53
2019-02-28T07:46:42.397Z,31.53
2019-02-28T07:49:10.011Z,29.70
2019-02-28T07:51:38.501Z,31.57
2019-02-28T07:54:06.984Z,34.63
2019-02-28T07:56:42.670Z,32.63
2019-02-28T07:59:06.374Z,32.95
2019-02-28T08:01:35.647Z,32.65
2019-02-28T08:04:04.670Z,31.43
2019-02-28T08:06:36.352Z,36.00
2019-02-28T08:09:07.776Z,35.35
2019-02-28T08:11:36.826Z,32.38
2019-02-28T08:14:05.908Z,33.58
2019-02-28T08:16:34.979Z,34.18
2019-02-28T08:19:04.022Z,31.02
2019-02-28T08:21:33.099Z,33.45
2019-02-28T08:24:02.542Z,34.90
2019-02-28T08:26:32.940Z,34.95
2019-02-28T08:29:02.018Z,36.98
2019-02-28T08:31:32.027Z,32.48
2019-02-28T08:34:02.016Z,35.48
2019-02-28T08:36:31.068Z,37.38
2019-02-28T08:39:00.132Z,37.98
2019-02-28T08:41:29.214Z,39.53
2019-02-28T08:43:58.329Z,39.20
2019-02-28T08:46:27.460Z,40.00
2019-02-28T08:48:56.519Z,41.63
2019-02-28T08:51:27.761Z,42.17
2019-02-28T08:53:56.349Z,41.77
2019-02-28T08:56:25.422Z,38.13
2019-02-28T08:58:54.475Z,45.25
2019-02-28T09:01:23.547Z,39.78
2019-02-28T09:03:52.603Z,40.67
2019-02-28T09:06:21.671Z,44.33
2019-02-28T09:08:50.721Z,39.90
2019-02-28T09:11:21.107Z,41.50
2019-02-28T09:13:50.575Z,41.73
2019-02-28T09:16:19.647Z,43.42
2019-02-28T09:18:48.733Z,42.05
2019-02-28T09:21:18.379Z,38.58
2019-02-28T09:23:48.265Z,42.03
2019-02-28T09:26:17.343Z,41.08
2019-02-28T09:28:47.481Z,37.58
2019-02-28T09:31:17.342Z,39.05
2019-02-28T09:33:46.405Z,42.43
2019-02-28T09:36:20.374Z,42.65
2019-02-28T09:38:46.272Z,43.83
2019-02-28T09:41:15.343Z,41.42
2019-02-28T09:43:44.390Z,39.30
2019-02-28T09:46:15.546Z,43.70
2019-02-28T09:48:44.243Z,42.55
2019-02-28T09:51:13.342Z,42.75
2019-02-28T09:53:42.403Z,45.08
2019-02-28T09:56:11.459Z,40.15
2019-02-28T09:58:40.533Z,42.70
2019-02-28T10:01:09.598Z,47.13
2019-02-28T10:03:38.679Z,43.55
2019-02-28T10:06:07.750Z,42.15
2019-02-28T10:08:38.003Z,42.62
2019-02-28T10:11:07.218Z,39.58
2019-02-28T10:13:36.280Z,45.70
2019-02-28T10:16:05.418Z,45.03
2019-02-28T10:18:35.618Z,45.12
2019-02-28T10:21:05.356Z,44.30
2019-02-28T10:23:34.418Z,43.58
2019-02-28T10:26:03.788Z,43.73
2019-02-28T10:28:32.842Z,42.33
2019-02-28T10:31:01.935Z,44.85
2019-02-28T10:33:31.054Z,43.13
2019-02-28T10:36:00.138Z,44.03
2019-02-28T10:38:29.450Z,47.40
2019-02-28T10:41:00.012Z,46.25
2019-02-28T10:43:29.084Z,45.08
2019-02-28T10:45:58.144Z,44.23
2019-02-28T10:48:27.232Z,44.08
2019-02-28T10:50:56.372Z,43.40
2019-02-28T10:53:25.418Z,44.10
2019-02-28T10:55:57.938Z,49.05
2019-02-28T10:58:25.334Z,45.05
2019-02-28T11:00:54.642Z,49.50
2019-02-28T11:03:23.693Z,46.68
2019-02-28T11:05:54.334Z,53.17
2019-02-28T11:08:23.577Z,45.70
2019-02-28T11:10:52.979Z,47.43
2019-02-28T11:13:22.864Z,46.48
2019-02-28T11:15:54.458Z,47.85
2019-02-28T11:18:23.593Z,50.12
2019-02-28T11:20:52.711Z,47.70
2019-02-28T11:23:23.132Z,51.37
2019-02-28T11:25:53.041Z,51.85
2019-02-28T11:28:27.952Z,52.40
2019-02-28T11:30:53.609Z,48.20
2019-02-28T11:33:22.930Z,49.03
2019-02-28T11:35:57.882Z,48.92
2019-02-28T11:38:23.143Z,50.08
2019-02-28T11:40:57.396Z,57.60
2019-02-28T11:43:23.821Z,54.45
2019-02-28T11:45:53.133Z,50.20
2019-02-28T11:48:25.451Z,50.65
2019-02-28T11:50:54.507Z,49.27
2019-02-28T11:53:23.591Z,49.77
2019-02-28T11:55:53.610Z,47.88
2019-02-28T11:58:23.534Z,50.60
2019-02-28T12:00:52.577Z,49.95
2019-02-28T12:03:21.672Z,48.75
2019-02-28T12:05:51.404Z,50.52
2019-02-28T12:08:22.327Z,51.30
2019-02-28T12:10:51.433Z,45.08
2019-02-28T12:13:20.623Z,51.95
2019-02-28T12:15:49.803Z,53.75
2019-02-28T12:18:18.866Z,50.55
2019-02-28T12:20:48.128Z,48.90
2019-02-28T12:23:22.890Z,54.50
2019-02-28T12:25:48.474Z,49.63
2019-02-28T12:28:17.738Z,56.40
2019-02-28T12:30:46.782Z,52.35
2019-02-28T12:33:18.668Z,51.02
2019-02-28T12:35:46.622Z,52.30
2019-02-28T12:38:15.694Z,52.93
2019-02-28T12:40:45.684Z,51.23
2019-02-28T12:43:15.678Z,46.68
2019-02-28T12:45:47.386Z,53.55
2019-02-28T12:48:16.682Z,52.40
2019-02-28T12:50:45.724Z,51.92
2019-02-28T12:53:14.858Z,53.28
2019-02-28T12:55:43.899Z,52.20
2019-02-28T12:58:13.035Z,53.60
2019-02-28T13:00:46.637Z,49.20
2019-02-28T13:03:19.185Z,53.35
2019-02-28T13:05:48.185Z,53.78
2019-02-28T13:08:17.501Z,49.95
2019-02-28T13:10:46.552Z,53.70
2019-02-28T13:13:15.946Z,55.85
2019-02-28T13:15:45.742Z,53.02
2019-02-28T13:18:15.976Z,51.15
2019-02-28T13:20:45.209Z,49.08
2019-02-28T13:23:16.963Z,53.70
2019-02-28T13:25:45.059Z,50.17
2019-02-28T13:28:17.789Z,53.15
2019-02-28T13:30:49.372Z,55.15
2019-02-28T13:33:16.186Z,52.43
2019-02-28T13:35:47.432Z,56.50
2019-02-28T13:38:19.069Z,53.95
2019-02-28T13:40:47.081Z,54.75
2019-02-28T13:43:20.778Z,50.92
2019-02-28T13:45:50.954Z,57.25
2019-02-28T13:48:25.669Z,51.00
2019-02-28T13:50:48.643Z,53.00
2019-02-28T13:53:18.548Z,56.15
2019-02-28T13:55:48.040Z,54.15
2019-02-28T13:58:17.649Z,53.38
2019-02-28T14:00:47.865Z,52.75
2019-02-28T14:03:17.242Z,53.52
2019-02-28T14:05:46.540Z,57.95
2019-02-28T14:08:15.847Z,51.25
2019-02-28T14:10:45.047Z,54.33
2019-02-28T14:13:14.169Z,49.50
2019-02-28T14:15:51.266Z,53.98
2019-02-28T14:18:16.829Z,53.85
2019-02-28T14:20:46.057Z,54.90
2019-02-28T14:23:20.142Z,57.85
2019-02-28T14:25:46.002Z,56.77
2019-02-28T14:28:15.195Z,54.38
2019-02-28T14:30:44.253Z,56.13
2019-02-28T14:33:16.097Z,57.73
2019-02-28T14:35:44.167Z,56.13
2019-02-28T14:38:13.226Z,57.55
2019-02-28T14:40:42.442Z,54.18
2019-02-28T14:43:11.566Z,57.38
2019-02-28T14:45:45.516Z,59.48
2019-02-28T14:48:14.590Z,58.28
2019-02-28T14:50:43.645Z,54.95
2019-02-28T14:53:14.381Z,57.80
2019-02-28T14:55:43.503Z,61.70
2019-02-28T14:58:12.546Z,55.25
2019-02-28T15:00:42.375Z,51.92
2019-02-28T15:03:14.697Z,54.15
2019-02-28T15:05:44.087Z,56.23
2019-02-28T15:08:15.464Z,60.28
2019-02-28T15:10:43.952Z,53.40
2019-02-28T15:13:13.091Z,54.18
2019-02-28T15:15:42.137Z,50.67
2019-02-28T15:18:13.987Z,51.53
2019-02-28T15:20:42.073Z,46.92
2019-02-28T15:23:11.130Z,47.48
2019-02-28T15:25:40.191Z,45.48
2019-02-28T15:28:10.768Z,46.28
2019-02-28T15:30:41.454Z,47.67
2019-02-28T15:33:10.509Z,46.85
2019-02-28T15:35:39.567Z,51.15
2019-02-28T15:38:10.042Z,45.70
2019-02-28T15:40:44.063Z,53.83
2019-02-28T15:43:16.957Z,54.70
2019-02-28T15:45:44.077Z,60.35
2019-02-28T15:48:13.133Z,55.43
2019-02-28T15:50:42.305Z,49.60
2019-02-28T15:53:15.047Z,59.80
2019-02-28T15:55:42.441Z,56.80
2019-02-28T15:58:11.655Z,57.23
2019-02-28T16:00:40.905Z,51.98
2019-02-28T16:03:10.062Z,51.95
2019-02-28T16:05:42.983Z,52.55
2019-02-28T16:08:10.813Z,49.13
2019-02-28T16:10:40.185Z,46.95
2019-02-28T16:13:09.368Z,46.30
2019-02-28T16:15:38.442Z,46.25
2019-02-28T16:18:08.693Z,45.80
2019-02-28T16:20:38.451Z,48.35
2019-02-28T16:23:07.677Z,43.05
2019-02-28T16:25:38.298Z,47.25
2019-02-28T16:28:08.918Z,45.85
2019-02-28T16:30:39.336Z,47.05
2019-02-28T16:33:08.493Z,42.48
2019-02-28T16:35:37.558Z,45.00
2019-02-28T16:38:09.852Z,51.63
2019-02-28T16:40:37.688Z,47.80
2019-02-28T16:43:06.822Z,42.48
2019-02-28T16:45:43.453Z,45.83
2019-02-28T16:48:12.533Z,46.37
2019-02-28T16:50:41.605Z,47.23
2019-02-28T16:53:14.993Z,45.78
2019-02-28T16:55:41.605Z,42.58
2019-02-28T16:58:10.689Z,44.60
2019-02-28T17:00:42.414Z,46.48
2019-02-28T17:03:10.957Z,44.42
2019-02-28T17:05:40.037Z,44.03
2019-02-28T17:08:09.202Z,46.95
2019-02-28T17:10:40.250Z,43.90
2019-02-28T17:13:11.046Z,45.10
2019-02-28T17:15:41.872Z,45.33
2019-02-28T17:18:22.594Z,45.23
2019-02-28T17:20:51.803Z,46.15
2019-02-28T17:23:20.876Z,43.45
2019-02-28T17:25:49.961Z,45.65
2019-02-28T17:28:32.564Z,43.48
2019-02-28T17:31:08.438Z,42.27
2019-02-28T17:33:36.560Z,44.10
2019-02-28T17:36:08.403Z,46.33
2019-02-28T17:38:38.006Z,45.67
2019-02-28T17:41:07.227Z,44.10
2019-02-28T17:43:40.599Z,45.78
2019-02-28T17:46:13.107Z,46.88
2019-02-28T17:48:57.271Z,44.83
2019-02-28T17:51:35.352Z,48.40
2019-02-28T17:54:17.308Z,46.53
2019-02-28T17:56:56.295Z,42.53
2019-02-28T17:59:49.029Z,44.38
2019-02-28T18:02:50.178Z,42.05
2019-02-28T18:05:41.977Z,44.90
2019-02-28T18:08:37.731Z,45.48
2019-02-28T18:11:30.868Z,47.53
2019-02-28T18:14:10.028Z,42.88
2019-02-28T18:16:48.185Z,48.60
2019-02-28T18:19:21.617Z,44.60
2019-02-28T18:22:09.198Z,40.65
2019-02-28T18:24:59.534Z,45.75
2019-02-28T18:27:40.409Z,44.95
2019-02-28T18:30:18.583Z,45.28
2019-02-28T18:32:47.640Z,44.08
2019-02-28T18:35:16.728Z,44.25
2019-02-28T18:37:45.854Z,46.85
2019-02-28T18:40:15.004Z,46.77
2019-02-28T18:42:44.152Z,48.08
2019-02-28T18:45:15.743Z,44.48
2019-02-28T18:47:44.178Z,47.65
2019-02-28T18:50:13.317Z,48.00
2019-02-28T18:52:42.391Z,45.63
2019-02-28T18:55:11.612Z,48.10
2019-02-28T18:57:40.678Z,62.20
2019-02-28T19:00:13.497Z,80.55
2019-02-28T19:02:42.553Z,56.35
2019-02-28T19:05:11.745Z,57.80
2019-02-28T19:07:40.852Z,48.90
2019-02-28T19:10:10.633Z,50.95
2019-02-28T19:12:39.735Z,47.78
2019-02-28T19:15:12.025Z,52.13
2019-02-28T19:17:41.091Z,57.53
2019-02-28T19:20:11.475Z,51.30
2019-02-28T19:22:40.543Z,48.08
2019-02-28T19:25:11.558Z,52.45
2019-02-28T19:27:40.601Z,54.63
2019-02-28T19:30:14.525Z,51.55
2019-02-28T19:32:43.652Z,52.55
2019-02-28T19:35:12.799Z,50.60
2019-02-28T19:37:41.865Z,57.75
2019-02-28T19:40:12.564Z,50.90
2019-02-28T19:42:41.695Z,53.28
2019-02-28T19:45:17.021Z,49.50
2019-02-28T19:47:47.480Z,53.98
2019-02-28T19:50:16.902Z,52.62
2019-02-28T19:52:45.970Z,52.00
2019-02-28T19:55:17.382Z,62.07
2019-02-28T19:57:46.448Z,59.73
2019-02-28T20:00:21.454Z,53.52
2019-02-28T20:02:50.579Z,55.33
2019-02-28T20:05:19.733Z,59.03
2019-02-28T20:07:48.808Z,58.23
2019-02-28T20:10:19.307Z,60.15
2019-02-28T20:12:48.368Z,55.35
2019-02-28T20:15:18.732Z,61.23
2019-02-28T20:17:48.207Z,61.08
2019-02-28T20:20:23.729Z,59.93
2019-02-28T20:22:52.786Z,62.80
2019-02-28T20:25:21.848Z,65.70
2019-02-28T20:27:51.014Z,66.25
2019-02-28T20:30:23.298Z,66.05
2019-02-28T20:32:52.734Z,70.80
2019-02-28T20:35:26.679Z,68.70
2019-02-28T20:37:53.016Z,63.50
2019-02-28T20:40:27.918Z,62.60
2019-02-28T20:42:56.992Z,67.15
2019-02-28T20:45:26.052Z,67.03
2019-02-28T20:47:55.119Z,66.62
2019-02-28T20:50:30.142Z,66.45
2019-02-28T20:52:59.234Z,69.15
2019-02-28T20:55:28.302Z,74.47
2019-02-28T20:57:57.371Z,73.60
2019-02-28T21:00:27.914Z,71.22
2019-02-28T21:02:56.970Z,73.33
2019-02-28T21:05:26.091Z,73.15
2019-02-28T21:07:56.573Z,73.90
2019-02-28T21:10:25.900Z,75.12
2019-02-28T21:12:55.102Z,73.00
2019-02-28T21:15:24.911Z,77.53
2019-02-28T21:17:54.156Z,80.20
2019-02-28T21:20:23.223Z,73.75
2019-02-28T21:22:52.274Z,79.25
2019-02-28T21:25:21.402Z,72.30
2019-02-28T21:27:50.467Z,78.65
2019-02-28T21:30:24.305Z,75.55
2019-02-28T21:32:53.377Z,71.60
2019-02-28T21:35:22.500Z,68.97
2019-02-28T21:37:51.621Z,73.15
2019-02-28T21:40:22.007Z,74.15
2019-02-28T21:42:51.133Z,77.92
2019-02-28T21:45:28.451Z,74.07
2019-02-28T21:47:57.512Z,73.92
2019-02-28T21:50:26.581Z,76.70
2019-02-28T21:52:55.644Z,75.37
2019-02-28T21:55:24.707Z,83.00
2019-02-28T21:57:53.794Z,76.97
2019-02-28T22:00:30.495Z,77.25
2019-02-28T22:02:59.573Z,74.35
2019-02-28T22:05:28.634Z,77.45
2019-02-28T22:07:57.717Z,74.97
2019-02-28T22:10:26.786Z,71.05
2019-02-28T22:12:55.868Z,73.62
2019-02-28T22:15:27.755Z,71.77
2019-02-28T22:17:56.888Z,74.07
2019-02-28T22:20:26.019Z,75.22
2019-02-28T22:22:55.090Z,64.42
2019-02-28T22:25:24.154Z,68.83
2019-02-28T22:27:53.224Z,71.25
2019-02-28T22:30:42.960Z,72.92
2019-02-28T22:33:19.921Z,68.72
2019-02-28T22:35:56.820Z,69.45
2019-02-28T22:38:25.949Z,68.90
2019-02-28T22:40:55.100Z,69.40
2019-02-28T22:43:24.209Z,69.80
2019-02-28T22:45:53.286Z,69.60
2019-02-28T22:48:22.496Z,72.37
2019-02-28T22:50:51.584Z,70.57
2019-02-28T22:53:20.642Z,66.60
2019-02-28T22:55:49.714Z,69.72
2019-02-28T22:58:18.775Z,66.70
2019-02-28T23:00:52.570Z,70.50
2019-02-28T23:03:21.692Z,70.62
2019-02-28T23:05:50.764Z,68.70
2019-02-28T23:08:19.846Z,73.28
2019-02-28T23:10:49.093Z,66.82
2019-02-28T23:13:18.145Z,70.15
2019-02-28T23:15:47.218Z,67.37
2019-02-28T23:18:16.271Z,69.72
2019-02-28T23:20:45.655Z,111.45
2019-02-28T23:23:14.714Z,79.92
2019-02-28T23:25:43.791Z,85.97
2019-02-28T23:28:24.901Z,76.57
2019-02-28T23:31:19.723Z,74.45
2019-02-28T23:33:48.767Z,74.77
2019-02-28T23:36:17.843Z,79.17
2019-02-28T23:38:46.897Z,82.35
2019-02-28T23:41:15.972Z,90.07
2019-02-28T23:43:45.105Z,83.25
2019-02-28T23:46:14.169Z,81.55
2019-02-28T23:48:43.226Z,77.05
2019-02-28T23:51:12.323Z,80.65
2019-02-28T23:53:41.390Z,75.08
2019-02-28T23:56:10.431Z,76.07
2019-02-28T23:58:39.514Z,76.30
